Latest Coastal Weather Observations for Evans Head

IDN60701

Issued at 12:02 pm EST Saturday 2 July 2016 (issued every 10 minutes, with the page automatically refreshed every 10 minutes)

About coastal observations | Map of coastal stations | Coastal observations for NSW | Marine services | Other Formats
Station Details ID: 058212 Name: EVANS HEAD RAAF BOMBING RANGE AWS Lat: -29.18 Lon: 153.40 Height: 62.5 m
Data from the previous 72 hours. | See also: Recent months at Evans Head
Date/Time
EST
Temp
°C
Wind Pressure Rain since
9am
mm
Weather Cloud Vis
km
Sea
Height
m
Swell
Dir  Spd
kts
Gust
kts
hPa Trend Height
m
Period
s
Dir
02/12:00pm 18.0 SSE 7 11 1023.7 - 0.0 - - - - - - -
02/11:30am 18.0 S 7 10 1024.1 - 0.0 - - - - - - -
02/11:00am 16.7 SW 6 9 1024.6 - 0.0 - - - - - - -
02/10:30am 15.9 SW 6 10 1024.9 - 0.0 - - - - - - -
02/10:00am 15.1 SW 6 10 1024.9 - 0.0 - - - - - - -
02/09:30am 14.3 SW 6 10 1024.9 - 0.0 - - - - - - -
02/09:00am 13.3 W 6 8 1024.9 - 0.0 - - - - - - -
02/08:30am 11.9 WSW 7 9 1024.6 - 0.0 - - - - - - -
02/08:00am 11.0 WSW 7 10 1024.3 - 0.0 - - - - - - -
02/07:30am 10.1 WSW 8 11 1024.0 - 0.0 - - - - - - -
02/07:00am 9.4 WSW 8 10 1023.7 - 0.0 - - - - - - -
02/06:30am 9.3 WSW 8 10 1023.3 - 0.0 - - - - - - -
02/06:00am 9.4 WSW 8 10 1022.9 - 0.0 - - - - - - -
02/05:30am 9.1 WSW 7 9 1022.6 - 0.0 - - - - - - -
02/05:00am 9.2 WSW 7 10 1022.2 - 0.0 - - - - - - -
02/04:30am 9.2 WSW 7 9 1021.9 - 0.0 - - - - - - -
02/04:00am 9.9 WSW 8 10 1021.7 - 0.0 - - - - - - -
02/03:30am 9.9 WSW 8 11 1021.6 - 0.0 - - - - - - -
02/03:00am 9.9 SW 8 10 1021.6 - 0.0 - - - - - - -
02/02:30am 10.4 SW 9 11 1021.6 - 0.0 - - - - - - -
02/02:00am 10.5 SW 9 12 1021.5 - 0.0 - - - - - - -
02/01:30am 10.6 SW 8 9 1021.4 - 0.0 - - - - - - -
02/01:00am 11.2 SW 8 11 1021.2 - 0.0 - - - - - - -
02/12:30am 11.3 SW 9 12 1021.1 - 0.0 - - - - - - -
02/12:00am 11.6 SW 9 12 1021.2 - 0.0 - - - - - - -
 
Date/Time
EST
Temp
°C
Wind Pressure Rain since
9am
mm
Weather Cloud Vis
km
Sea
Height
m
Swell
Dir  Spd
kts
Gust
kts
hPa Trend Height
m
Period
s
Dir
01/11:30pm 12.1 SW 9 12 1021.1 - 0.0 - - - - - - -
01/11:00pm 12.3 SW 9 12 1021.2 - 0.0 - - - - - - -
01/10:30pm 12.8 SW 8 11 1021.0 - 0.0 - - - - - - -
01/10:00pm 13.3 SW 8 10 1020.9 - 0.0 - - - - - - -
01/09:30pm 13.4 SW 8 10 1020.8 - 0.0 - - - - - - -
01/09:00pm 13.6 SW 8 10 1020.5 - 0.0 - - - - - - -
01/08:30pm 13.6 SSW 7 12 1020.3 - 0.0 - - - - - - -
01/08:00pm 14.8 W 8 12 1019.5 - 0.0 - - - - - - -
01/07:30pm 14.6 W 7 10 1018.9 - 0.0 - - - - - - -
01/07:00pm 14.5 WNW 6 9 1018.5 - 0.0 - - - - - - -
01/06:30pm 14.1 WNW 5 7 1018.0 - 0.0 - - - - - - -
01/06:00pm 14.2 WNW 6 9 1017.5 - 0.0 - - - - - - -
01/05:30pm 14.1 NW 6 8 1016.9 - 0.0 - - - - - - -
01/05:00pm 15.6 NNW 4 5 1016.4 - 0.0 - - - - - - -
01/04:30pm 17.4 N 3 4 1016.2 - 0.0 - - - - - - -
01/04:00pm 18.6 CALM 0 4 1016.2 - 0.0 - - - - - - -
01/03:30pm 19.7 NNW 3 4 1016.0 - 0.0 - - - - - - -
01/03:00pm 20.8 NNW 6 9 1015.8 - 0.0 - - - - - - -
01/02:30pm 21.4 NNW 6 12 1015.9 - 0.0 - - - - - - -
01/02:00pm 20.7 WNW 7 12 1016.2 - 0.0 - - - - - - -
01/01:30pm 21.9 NNW 7 11 1016.3 - 0.0 - - - - - - -
01/01:00pm 20.4 WNW 7 12 1016.7 - 0.0 - - - - - - -
01/12:30pm 20.1 W 6 11 1017.1 - 0.0 - - - - - - -
01/12:00pm 20.0 WNW 7 12 1017.3 - 0.0 - - - - - - -
01/11:30am 19.9 NW 9 17 1017.7 - 0.0 - - - - - - -
01/11:00am 19.0 NW 9 15 1018.0 - 0.0 - - - - - - -
01/10:30am 18.7 NW 8 14 1018.3 - 0.0 - - - - - - -
01/10:00am 18.0 NW 9 15 1018.7 - 0.0 - - - - - - -
01/09:30am 17.0 NW 9 15 1019.0 - 0.0 - - - - - - -
01/09:00am 16.2 NW 10 16 1019.0 - 0.0 - - - - - - -
01/08:30am 15.1 NW 9 18 1019.1 - 0.0 - - - - - - -
01/08:00am 13.7 NW 9 14 1018.8 - 0.0 - - - - - - -
01/07:30am 12.5 NW 10 17 1018.5 - 0.0 - - - - - - -
01/07:00am 11.6 NW 9 11 1018.3 - 0.0 - - - - - - -
01/06:30am 11.4 NW 7 10 1018.0 - 0.0 - - - - - - -
01/06:00am 12.4 NW 8 12 1018.0 - 0.0 - - - - - - -
01/05:30am 12.0 NW 7 11 1018.0 - 0.0 - - - - - - -
01/05:00am 11.9 NW 8 11 1017.8 - 0.0 - - - - - - -
01/04:30am 12.5 NW 6 11 1017.8 - 0.0 - - - - - - -
01/04:00am 11.6 NNW 7 11 1017.5 - 0.0 - - - - - - -
01/03:30am 11.5 NNW 6 10 1017.6 - 0.0 - - - - - - -
01/03:00am 11.9 NNW 7 10 1017.6 - 0.0 - - - - - - -
01/02:30am 12.0 NNW 7 11 1018.0 - 0.0 - - - - - - -
01/02:00am 11.9 NNW 6 9 1018.2 - 0.0 - - - - - - -
01/01:30am 11.9 NNW 7 9 1018.4 - 0.0 - - - - - - -
01/01:00am 12.4 NNW 6 9 1018.7 - 0.0 - - - - - - -
01/12:30am 13.0 NNW 5 7 1018.9 - 0.0 - - - - - - -
01/12:00am 12.9 N 6 9 1019.1 - 0.0 - - - - - - -
 
Date/Time
EST
Temp
°C
Wind Pressure Rain since
9am
mm
Weather Cloud Vis
km
Sea
Height
m
Swell
Dir  Spd
kts
Gust
kts
hPa Trend Height
m
Period
s
Dir
30/11:30pm 13.1 N 7 9 1019.2 - 0.0 - - - - - - -
30/11:00pm 13.3 N 8 12 1019.3 - 0.0 - - - - - - -
30/10:30pm 12.6 N 7 11 1019.2 - 0.0 - - - - - - -
30/10:00pm 13.0 N 7 9 1019.3 - 0.0 - - - - - - -
30/09:30pm 13.3 N 7 11 1019.3 - 0.0 - - - - - - -
30/09:00pm 14.0 N 7 10 1019.3 - 0.0 - - - - - - -
30/08:30pm 14.6 N 7 11 1019.4 - 0.0 - - - - - - -
30/08:00pm 14.9 N 9 13 1019.3 - 0.0 - - - - - - -
30/07:30pm 15.3 N 9 16 1019.5 - 0.0 - - - - - - -
30/07:00pm 15.6 N 9 14 1019.4 - 0.0 - - - - - - -
30/06:30pm 15.8 N 9 14 1019.5 - 0.0 - - - - - - -
30/06:00pm 15.9 NNE 9 13 1019.5 - 0.0 - - - - - - -
30/05:30pm 15.8 N 9 15 1019.2 - 0.0 - - - - - - -
30/05:00pm 15.8 N 7 10 1019.1 - 0.0 - - - - - - -
30/04:30pm 16.4 N 7 10 1019.1 - 0.0 - - - - - - -
30/04:00pm 17.3 N 7 12 1019.1 - 0.0 - - - - - - -
30/03:30pm 19.9 NNW 6 11 1019.1 - 0.0 - - - - - - -
30/03:00pm 20.8 NNW 7 11 1019.5 - 0.0 - - - - - - -
30/02:30pm 21.3 NNW 7 12 1019.7 - 0.0 - - - - - - -
30/02:00pm 21.4 NNW 9 13 1019.9 - 0.0 - - - - - - -
30/01:30pm 22.1 NNW 7 12 1020.5 - 0.0 - - - - - - -
30/01:00pm 21.2 NNW 7 11 1021.0 - 0.0 - - - - - - -
30/12:30pm 20.5 NW 5 10 1021.5 - 0.0 - - - - - - -
30/12:00pm 19.5 WNW 5 9 1022.1 - 0.0 - - - - - - -
30/11:30am 18.3 WNW 6 9 1022.9 - 0.0 - - - - - - -
30/11:00am 18.0 WNW 7 10 1023.5 - 0.0 - - - - - - -
30/10:30am 17.5 WNW 6 8 1023.8 - 0.0 - - - - - - -
30/10:00am 16.2 WNW 5 7 1024.1 - 0.0 - - - - - - -
30/09:30am 15.4 WNW 5 8 1024.1 - 0.0 - - - - - - -
30/09:00am 14.2 WNW 5 8 1024.1 - 0.0 - - - - - - -
30/08:30am 12.6 W 2 5 1023.9 - 0.0 - - - - - - -
30/08:00am 9.8 NNW 3 4 1023.9 - 0.0 - - - - - - -
30/07:30am 9.4 W 4 6 1023.7 - 0.0 - - - - - - -
30/07:00am 9.0 WSW 5 7 1023.4 - 0.0 - - - - - - -
30/06:30am 8.4 W 4 6 1023.5 - 0.0 - - - - - - -
30/06:00am 8.9 WNW 5 6 1023.3 - 0.0 - - - - - - -
30/05:30am 8.1 NW 5 6 1023.1 - 0.0 - - - - - - -
30/05:00am 10.2 W 5 7 1023.1 - 0.0 - - - - - - -
30/04:30am 10.2 WSW 4 7 1023.2 - 0.0 - - - - - - -
30/04:00am 9.5 NW 5 7 1023.2 - 0.0 - - - - - - -
30/03:30am 10.9 WNW 6 8 1023.4 - 0.0 - - - - - - -
30/03:00am 11.2 WNW 6 8 1023.5 - 0.0 - - - - - - -
30/02:30am 11.5 W 7 8 1023.6 - 0.0 - - - - - - -
30/02:00am 11.8 W 7 9 1024.0 - 0.0 - - - - - - -
30/01:30am 11.6 W 7 9 1024.3 - 0.0 - - - - - - -
30/01:00am 12.0 W 7 9 1024.7 - 0.0 - - - - - - -
30/12:30am 12.2 W 7 9 1024.7 - 0.0 - - - - - - -
30/12:00am 12.6 W 7 8 1024.7 - 0.0 - - - - - - -
 
Date/Time
EST
Temp
°C
Wind Pressure Rain since
9am
mm
Weather Cloud Vis
km
Sea
Height
m
Swell
Dir  Spd
kts
Gust
kts
hPa Trend Height
m
Period
s
Dir
29/11:30pm 12.9 W 7 8 1025.0 - 0.0 - - - - - - -
29/11:00pm 13.2 W 7 8 1025.2 - 0.0 - - - - - - -
29/10:30pm 13.7 W 7 7 1025.4 - 0.0 - - - - - - -
29/10:00pm 13.3 W 6 7 1025.6 - 0.0 - - - - - - -
29/09:30pm 13.5 W 6 7 1025.5 - 0.0 - - - - - - -
29/09:00pm 13.3 WSW 6 7 1025.6 - 0.0 - - - - - - -
29/08:30pm 13.8 SW 6 7 1025.6 - 0.0 - - - - - - -
29/08:00pm 13.3 WSW 6 7 1025.8 - 0.0 - - - - - - -
29/07:30pm 13.1 W 6 6 1025.9 - 0.0 - - - - - - -
29/07:00pm 13.2 WSW 6 7 1025.8 - 0.0 - - - - - - -
29/06:30pm 13.5 SW 5 7 1025.7 - 0.0 - - - - - - -
29/06:00pm 14.4 SSW 7 9 1025.4 - 0.0 - - - - - - -
29/05:30pm 13.8 S 7 8 1025.2 - 0.0 - - - - - - -
29/05:00pm 14.3 S 8 10 1025.1 - 0.0 - - - - - - -
29/04:30pm 15.1 S 8 11 1025.0 - 0.0 - - - - - - -
29/04:00pm 15.9 S 9 13 1024.9 - 0.0 - - - - - - -
29/03:30pm 16.6 SSE 10 15 1024.8 - 0.0 - - - - - - -
29/03:00pm 17.2 SSE 11 15 1024.6 - 0.0 - - - - - - -
29/02:30pm 17.8 SSE 10 16 1024.5 - 0.0 - - - - - - -
29/02:00pm 17.9 SSE 12 17 1024.4 - 0.0 - - - - - - -
29/01:30pm 18.2 S 11 16 1024.4 - 0.0 - - - - - - -
29/01:00pm 18.1 SSW 10 15 1024.8 - 0.0 - - - - - - -
29/12:30pm 18.0 S 11 16 1025.3 - 0.0 - - - - - - -

Other Formats:

Comma delimited format used in spreadsheet applications
http://www.bom.gov.au/fwo/IDN60701/IDN60701.94598.axf

JavaScript Object Notation format (JSON) in row-major order
http://www.bom.gov.au/fwo/IDN60701/IDN60701.94598.json